sensor_id;sensor_type;location;lat;lon;timestamp;pressure;altitude;pressure_sealevel;temperature;humidity
35489;BME280;21602;55.670;37.578;2023-04-23T00:00:51;98947.41;;;12.86;42.39
35489;BME280;21602;55.670;37.578;2023-04-23T00:03:20;98948.75;;;12.84;42.65
35489;BME280;21602;55.670;37.578;2023-04-23T00:05:47;98942.81;;;12.81;42.73
35489;BME280;21602;55.670;37.578;2023-04-23T00:08:15;98949.53;;;12.79;42.72
35489;BME280;21602;55.670;37.578;2023-04-23T00:10:42;98957.25;;;12.75;42.62
35489;BME280;21602;55.670;37.578;2023-04-23T00:13:08;98953.78;;;12.75;42.73
35489;BME280;21602;55.670;37.578;2023-04-23T00:15:34;98952.16;;;12.74;42.68
35489;BME280;21602;55.670;37.578;2023-04-23T00:18:01;98955.91;;;12.73;42.78
35489;BME280;21602;55.670;37.578;2023-04-23T00:20:27;98963.38;;;12.71;43.06
35489;BME280;21602;55.670;37.578;2023-04-23T00:22:52;98962.56;;;12.70;42.96
35489;BME280;21602;55.670;37.578;2023-04-23T00:25:18;98960.41;;;12.67;42.98
35489;BME280;21602;55.670;37.578;2023-04-23T00:27:45;98974.06;;;12.66;42.83
35489;BME280;21602;55.670;37.578;2023-04-23T00:30:12;98965.22;;;12.65;42.90
35489;BME280;21602;55.670;37.578;2023-04-23T00:32:38;98969.50;;;12.66;42.69
35489;BME280;21602;55.670;37.578;2023-04-23T00:35:04;98965.75;;;12.67;42.80
35489;BME280;21602;55.670;37.578;2023-04-23T00:37:33;98972.75;;;12.68;42.82
35489;BME280;21602;55.670;37.578;2023-04-23T00:39:59;98971.94;;;12.68;42.57
35489;BME280;21602;55.670;37.578;2023-04-23T00:42:25;98969.50;;;12.66;42.54
35489;BME280;21602;55.670;37.578;2023-04-23T00:44:52;98975.94;;;12.65;42.51
35489;BME280;21602;55.670;37.578;2023-04-23T00:47:19;98978.88;;;12.64;42.60
35489;BME280;21602;55.670;37.578;2023-04-23T00:49:45;98979.09;;;12.62;42.66
35489;BME280;21602;55.670;37.578;2023-04-23T00:52:12;98980.19;;;12.61;42.56
35489;BME280;21602;55.670;37.578;2023-04-23T00:54:38;98972.16;;;12.61;42.60
35489;BME280;21602;55.670;37.578;2023-04-23T00:57:04;98977.22;;;12.63;42.60
35489;BME280;21602;55.670;37.578;2023-04-23T00:59:33;98978.06;;;12.63;42.82
35489;BME280;21602;55.670;37.578;2023-04-23T01:02:01;98984.22;;;12.64;42.66
35489;BME280;21602;55.670;37.578;2023-04-23T01:04:28;98983.16;;;12.65;42.66
35489;BME280;21602;55.670;37.578;2023-04-23T01:06:56;98978.59;;;12.65;42.65
35489;BME280;21602;55.670;37.578;2023-04-23T01:09:22;98978.88;;;12.64;42.95
35489;BME280;21602;55.670;37.578;2023-04-23T01:11:50;98975.38;;;12.63;42.86
35489;BME280;21602;55.670;37.578;2023-04-23T01:14:16;98978.31;;;12.62;42.84
35489;BME280;21602;55.670;37.578;2023-04-23T01:16:42;98987.66;;;12.59;42.97
35489;BME280;21602;55.670;37.578;2023-04-23T01:19:09;98985.00;;;12.59;42.94
35489;BME280;21602;55.670;37.578;2023-04-23T01:21:36;98982.84;;;12.61;42.92
35489;BME280;21602;55.670;37.578;2023-04-23T01:24:03;98985.53;;;12.61;42.92
35489;BME280;21602;55.670;37.578;2023-04-23T01:26:30;98988.22;;;12.61;42.79
35489;BME280;21602;55.670;37.578;2023-04-23T01:28:57;98989.28;;;12.60;42.95
35489;BME280;21602;55.670;37.578;2023-04-23T01:31:25;98988.75;;;12.58;42.85
35489;BME280;21602;55.670;37.578;2023-04-23T01:33:52;98988.97;;;12.56;43.03
35489;BME280;21602;55.670;37.578;2023-04-23T01:36:21;98987.63;;;12.54;42.94
35489;BME280;21602;55.670;37.578;2023-04-23T01:38:47;98983.31;;;12.53;42.87
35489;BME280;21602;55.670;37.578;2023-04-23T01:41:13;98988.94;;;12.51;43.15
35489;BME280;21602;55.670;37.578;2023-04-23T01:43:40;98991.88;;;12.50;43.55
35489;BME280;21602;55.670;37.578;2023-04-23T01:46:07;98991.31;;;12.48;42.99
35489;BME280;21602;55.670;37.578;2023-04-23T01:48:33;98996.38;;;12.44;43.09
35489;BME280;21602;55.670;37.578;2023-04-23T01:50:59;98998.25;;;12.44;43.26
35489;BME280;21602;55.670;37.578;2023-04-23T01:53:26;98999.28;;;12.43;43.24
35489;BME280;21602;55.670;37.578;2023-04-23T01:55:55;99003.03;;;12.42;43.43
35489;BME280;21602;55.670;37.578;2023-04-23T01:58:22;98989.91;;;12.40;43.38
35489;BME280;21602;55.670;37.578;2023-04-23T02:00:49;99000.63;;;12.40;43.32
35489;BME280;21602;55.670;37.578;2023-04-23T02:03:16;98994.47;;;12.40;43.33
35489;BME280;21602;55.670;37.578;2023-04-23T02:05:42;99002.22;;;12.41;43.36
35489;BME280;21602;55.670;37.578;2023-04-23T02:08:09;98994.75;;;12.43;43.42
35489;BME280;21602;55.670;37.578;2023-04-23T02:10:35;98999.34;;;12.48;43.20
35489;BME280;21602;55.670;37.578;2023-04-23T02:13:01;99005.25;;;12.50;43.58
35489;BME280;21602;55.670;37.578;2023-04-23T02:15:29;99004.47;;;12.49;43.40
35489;BME280;21602;55.670;37.578;2023-04-23T02:17:55;98999.91;;;12.50;43.56
35489;BME280;21602;55.670;37.578;2023-04-23T02:20:21;99008.75;;;12.50;43.62
35489;BME280;21602;55.670;37.578;2023-04-23T02:22:48;99004.69;;;12.48;43.33
35489;BME280;21602;55.670;37.578;2023-04-23T02:25:15;99011.38;;;12.45;43.42
35489;BME280;21602;55.670;37.578;2023-04-23T02:27:46;99014.06;;;12.45;43.65
35489;BME280;21602;55.670;37.578;2023-04-23T02:30:12;99011.91;;;12.47;43.50
35489;BME280;21602;55.670;37.578;2023-04-23T02:32:38;99015.97;;;12.50;43.36
35489;BME280;21602;55.670;37.578;2023-04-23T02:35:05;99020.56;;;12.54;43.39
35489;BME280;21602;55.670;37.578;2023-04-23T02:37:32;99016.31;;;12.59;43.40
35489;BME280;21602;55.670;37.578;2023-04-23T02:39:59;99018.47;;;12.62;43.32
35489;BME280;21602;55.670;37.578;2023-04-23T02:42:25;99018.00;;;12.70;43.19
35489;BME280;21602;55.670;37.578;2023-04-23T02:44:51;99017.78;;;12.76;43.12
35489;BME280;21602;55.670;37.578;2023-04-23T02:47:17;99019.47;;;12.82;43.17
35489;BME280;21602;55.670;37.578;2023-04-23T02:49:43;99024.31;;;12.91;43.34
35489;BME280;21602;55.670;37.578;2023-04-23T02:52:09;99016.66;;;13.04;42.97
35489;BME280;21602;55.670;37.578;2023-04-23T02:54:36;99013.81;;;13.16;42.68
35489;BME280;21602;55.670;37.578;2023-04-23T02:57:03;99025.69;;;13.25;42.89
35489;BME280;21602;55.670;37.578;2023-04-23T02:59:29;99026.81;;;13.35;42.80
35489;BME280;21602;55.670;37.578;2023-04-23T03:01:55;99025.28;;;13.44;42.38
35489;BME280;21602;55.670;37.578;2023-04-23T03:04:21;99025.28;;;13.49;42.46
35489;BME280;21602;55.670;37.578;2023-04-23T03:06:49;99026.63;;;13.51;42.27
35489;BME280;21602;55.670;37.578;2023-04-23T03:09:15;99029.03;;;13.53;42.17
35489;BME280;21602;55.670;37.578;2023-04-23T03:11:42;99035.00;;;13.60;42.17
35489;BME280;21602;55.670;37.578;2023-04-23T03:14:11;99032.88;;;13.67;42.08
35489;BME280;21602;55.670;37.578;2023-04-23T03:16:37;99038.81;;;13.74;41.80
35489;BME280;21602;55.670;37.578;2023-04-23T03:19:04;99033.75;;;13.83;41.71
35489;BME280;21602;55.670;37.578;2023-04-23T03:21:30;99034.06;;;13.92;41.44
35489;BME280;21602;55.670;37.578;2023-04-23T03:23:56;99040.53;;;14.01;41.47
35489;BME280;21602;55.670;37.578;2023-04-23T03:26:22;99044.06;;;14.06;41.26
35489;BME280;21602;55.670;37.578;2023-04-23T03:28:48;99045.41;;;14.14;41.09
35489;BME280;21602;55.670;37.578;2023-04-23T03:31:14;99050.78;;;14.19;41.09
35489;BME280;21602;55.670;37.578;2023-04-23T03:33:40;99052.13;;;14.22;41.17
35489;BME280;21602;55.670;37.578;2023-04-23T03:36:06;99059.91;;;14.23;41.09
35489;BME280;21602;55.670;37.578;2023-04-23T03:38:32;99060.72;;;14.24;41.08
35489;BME280;21602;55.670;37.578;2023-04-23T03:41:00;99061.81;;;14.23;40.85
35489;BME280;21602;55.670;37.578;2023-04-23T03:43:26;99059.94;;;14.28;40.97
35489;BME280;21602;55.670;37.578;2023-04-23T03:46:12;99064.78;;;14.26;40.84
35489;BME280;21602;55.670;37.578;2023-04-23T03:48:40;99062.59;;;14.18;41.04
35489;BME280;21602;55.670;37.578;2023-04-23T03:51:12;99072.81;;;14.16;41.17
35489;BME280;21602;55.670;37.578;2023-04-23T03:53:44;99065.28;;;14.18;41.19
35489;BME280;21602;55.670;37.578;2023-04-23T03:56:29;99070.16;;;14.26;41.20
35489;BME280;21602;55.670;37.578;2023-04-23T03:59:07;99072.84;;;14.37;41.04
35489;BME280;21602;55.670;37.578;2023-04-23T04:01:34;99076.63;;;14.46;41.10
35489;BME280;21602;55.670;37.578;2023-04-23T04:04:01;99072.66;;;14.53;40.94
35489;BME280;21602;55.670;37.578;2023-04-23T04:06:27;99077.50;;;14.62;40.84
35489;BME280;21602;55.670;37.578;2023-04-23T04:08:54;99077.50;;;14.67;40.71
35489;BME280;21602;55.670;37.578;2023-04-23T04:11:21;99079.66;;;14.65;40.62
35489;BME280;21602;55.670;37.578;2023-04-23T04:13:47;99083.69;;;14.67;40.63
35489;BME280;21602;55.670;37.578;2023-04-23T04:16:13;99078.06;;;14.79;40.88
35489;BME280;21602;55.670;37.578;2023-04-23T04:18:39;99081.03;;;14.88;40.43
35489;BME280;21602;55.670;37.578;2023-04-23T04:21:05;99091.25;;;15.06;40.16
35489;BME280;21602;55.670;37.578;2023-04-23T04:23:30;99086.38;;;15.23;39.77
35489;BME280;21602;55.670;37.578;2023-04-23T04:25:58;99087.47;;;15.32;39.61
35489;BME280;21602;55.670;37.578;2023-04-23T04:28:24;99092.81;;;15.37;39.62
35489;BME280;21602;55.670;37.578;2023-04-23T04:30:54;99089.06;;;15.44;39.49
35489;BME280;21602;55.670;37.578;2023-04-23T04:33:28;99099.28;;;15.47;39.30
35489;BME280;21602;55.670;37.578;2023-04-23T04:35:54;99095.78;;;15.51;39.17
35489;BME280;21602;55.670;37.578;2023-04-23T04:38:21;99097.94;;;15.54;39.02
35489;BME280;21602;55.670;37.578;2023-04-23T04:40:47;99097.66;;;15.56;38.94
35489;BME280;21602;55.670;37.578;2023-04-23T04:43:16;99102.50;;;15.54;39.01
35489;BME280;21602;55.670;37.578;2023-04-23T04:45:43;99104.13;;;15.50;38.81
35489;BME280;21602;55.670;37.578;2023-04-23T04:48:09;99105.22;;;15.49;39.00
35489;BME280;21602;55.670;37.578;2023-04-23T04:50:35;99106.28;;;15.48;38.94
35489;BME280;21602;55.670;37.578;2023-04-23T04:53:01;99107.09;;;15.53;38.93
35489;BME280;21602;55.670;37.578;2023-04-23T04:55:27;99108.41;;;15.56;38.86
35489;BME280;21602;55.670;37.578;2023-04-23T04:57:53;99106.78;;;15.60;38.77
35489;BME280;21602;55.670;37.578;2023-04-23T05:00:23;99114.06;;;15.65;38.65
35489;BME280;21602;55.670;37.578;2023-04-23T05:02:50;99111.66;;;15.73;38.64
35489;BME280;21602;55.670;37.578;2023-04-23T05:05:18;99112.16;;;15.75;38.38
35489;BME280;21602;55.670;37.578;2023-04-23T05:07:43;99119.69;;;15.78;38.41
35489;BME280;21602;55.670;37.578;2023-04-23T05:10:10;99120.50;;;15.84;38.28
35489;BME280;21602;55.670;37.578;2023-04-23T05:12:36;99124.25;;;15.88;38.21
35489;BME280;21602;55.670;37.578;2023-04-23T05:15:10;99134.75;;;15.84;38.15
35489;BME280;21602;55.670;37.578;2023-04-23T05:17:39;99127.47;;;15.90;38.29
35489;BME280;21602;55.670;37.578;2023-04-23T05:20:05;99134.19;;;15.98;37.96
35489;BME280;21602;55.670;37.578;2023-04-23T05:22:41;99129.56;;;16.08;37.78
35489;BME280;21602;55.670;37.578;2023-04-23T05:25:09;99132.53;;;16.07;37.84
35489;BME280;21602;55.670;37.578;2023-04-23T05:27:36;99134.69;;;16.10;37.90
35489;BME280;21602;55.670;37.578;2023-04-23T05:30:04;99135.50;;;16.10;37.97
35489;BME280;21602;55.670;37.578;2023-04-23T05:32:33;99137.94;;;16.07;37.96
35489;BME280;21602;55.670;37.578;2023-04-23T05:34:59;99146.00;;;16.07;37.99
35489;BME280;21602;55.670;37.578;2023-04-23T05:37:33;99141.72;;;16.01;37.85
35489;BME280;21602;55.670;37.578;2023-04-23T05:39:59;99143.34;;;16.02;38.17
35489;BME280;21602;55.670;37.578;2023-04-23T05:42:27;99144.91;;;16.08;38.07
35489;BME280;21602;55.670;37.578;2023-04-23T05:44:53;99141.38;;;16.18;37.81
35489;BME280;21602;55.670;37.578;2023-04-23T05:47:18;99148.06;;;16.30;37.72
35489;BME280;21602;55.670;37.578;2023-04-23T05:49:44;99144.28;;;16.31;37.61
35489;BME280;21602;55.670;37.578;2023-04-23T05:52:10;99144.28;;;16.31;37.50
35489;BME280;21602;55.670;37.578;2023-04-23T05:54:36;99144.53;;;16.40;37.27
35489;BME280;21602;55.670;37.578;2023-04-23T05:57:02;99144.75;;;16.54;37.16
35489;BME280;21602;55.670;37.578;2023-04-23T05:59:30;99149.75;;;16.71;37.01
35489;BME280;21602;55.670;37.578;2023-04-23T06:01:56;99143.84;;;16.74;36.99
35489;BME280;21602;55.670;37.578;2023-04-23T06:04:22;99144.34;;;16.81;36.87
35489;BME280;21602;55.670;37.578;2023-04-23T06:06:48;99153.47;;;16.85;36.82
35489;BME280;21602;55.670;37.578;2023-04-23T06:09:14;99150.97;;;16.99;36.60
35489;BME280;21602;55.670;37.578;2023-04-23T06:11:43;99155.44;;;17.13;36.45
35489;BME280;21602;55.670;37.578;2023-04-23T06:14:09;99155.09;;;17.25;36.23
35489;BME280;21602;55.670;37.578;2023-04-23T06:16:35;99159.88;;;17.33;36.52
35489;BME280;21602;55.670;37.578;2023-04-23T06:19:00;99158.00;;;17.34;36.35
35489;BME280;21602;55.670;37.578;2023-04-23T06:21:26;99162.53;;;17.38;36.28
35489;BME280;21602;55.670;37.578;2023-04-23T06:23:52;99162.34;;;17.30;36.31
35489;BME280;21602;55.670;37.578;2023-04-23T06:26:19;99161.03;;;17.22;36.15
35489;BME280;21602;55.670;37.578;2023-04-23T06:28:47;99166.16;;;17.24;36.26
35489;BME280;21602;55.670;37.578;2023-04-23T06:31:36;99175.53;;;17.31;36.16
35489;BME280;21602;55.670;37.578;2023-04-23T06:34:02;99177.13;;;17.32;36.17
35489;BME280;21602;55.670;37.578;2023-04-23T06:36:28;99170.09;;;17.36;36.06
35489;BME280;21602;55.670;37.578;2023-04-23T06:38:54;99167.66;;;17.40;35.96
35489;BME280;21602;55.670;37.578;2023-04-23T06:41:20;99176.03;;;17.38;35.91
35489;BME280;21602;55.670;37.578;2023-04-23T06:43:59;99169.25;;;17.41;35.82
35489;BME280;21602;55.670;37.578;2023-04-23T06:46:45;99179.28;;;17.35;35.64
35489;BME280;21602;55.670;37.578;2023-04-23T06:49:11;99179.91;;;17.56;35.79
35489;BME280;21602;55.670;37.578;2023-04-23T06:51:37;99177.72;;;17.63;35.63
35489;BME280;21602;55.670;37.578;2023-04-23T06:54:03;99182.75;;;17.70;35.90
35489;BME280;21602;55.670;37.578;2023-04-23T06:56:28;99185.47;;;17.70;35.70
35489;BME280;21602;55.670;37.578;2023-04-23T06:58:54;99191.38;;;17.77;35.47
35489;BME280;21602;55.670;37.578;2023-04-23T07:01:20;99183.69;;;17.89;35.47
35489;BME280;21602;55.670;37.578;2023-04-23T07:03:46;99183.13;;;17.92;35.31
35489;BME280;21602;55.670;37.578;2023-04-23T07:06:15;99187.91;;;18.01;35.53
35489;BME280;21602;55.670;37.578;2023-04-23T07:08:43;99195.47;;;17.99;35.20
35489;BME280;21602;55.670;37.578;2023-04-23T07:11:10;99193.56;;;17.99;35.49
35489;BME280;21602;55.670;37.578;2023-04-23T07:13:36;99187.56;;;18.07;35.37
35489;BME280;21602;55.670;37.578;2023-04-23T07:16:02;99189.50;;;18.02;35.41
35489;BME280;21602;55.670;37.578;2023-04-23T07:18:28;99194.16;;;17.96;35.46
35489;BME280;21602;55.670;37.578;2023-04-23T07:20:54;99190.59;;;18.01;35.54
35489;BME280;21602;55.670;37.578;2023-04-23T07:23:20;99193.66;;;18.18;35.54
35489;BME280;21602;55.670;37.578;2023-04-23T07:25:46;99193.81;;;18.27;35.64
35489;BME280;21602;55.670;37.578;2023-04-23T07:28:12;99192.84;;;18.41;35.26
35489;BME280;21602;55.670;37.578;2023-04-23T07:30:38;99201.41;;;18.49;35.39
35489;BME280;21602;55.670;37.578;2023-04-23T07:33:04;99195.59;;;18.60;34.78
35489;BME280;21602;55.670;37.578;2023-04-23T07:35:30;99202.50;;;18.72;35.23
35489;BME280;21602;55.670;37.578;2023-04-23T07:37:55;99189.72;;;18.77;34.83
35489;BME280;21602;55.670;37.578;2023-04-23T07:40:23;99196.84;;;18.68;34.79
35489;BME280;21602;55.670;37.578;2023-04-23T07:42:50;99194.34;;;18.77;34.92
35489;BME280;21602;55.670;37.578;2023-04-23T07:45:17;99201.84;;;18.80;34.92
35489;BME280;21602;55.670;37.578;2023-04-23T07:47:43;99197.47;;;18.84;34.92
35489;BME280;21602;55.670;37.578;2023-04-23T07:50:10;99196.81;;;18.92;34.72
35489;BME280;21602;55.670;37.578;2023-04-23T07:52:36;99211.00;;;19.03;34.82
35489;BME280;21602;55.670;37.578;2023-04-23T07:55:02;99189.09;;;18.85;34.32
35489;BME280;21602;55.670;37.578;2023-04-23T07:57:30;99189.44;;;18.55;34.15
35489;BME280;21602;55.670;37.578;2023-04-23T07:59:56;99198.84;;;18.38;33.85
35489;BME280;21602;55.670;37.578;2023-04-23T08:02:25;99205.97;;;18.29;33.59
35489;BME280;21602;55.670;37.578;2023-04-23T08:04:52;99201.75;;;18.18;32.72
35489;BME280;21602;55.670;37.578;2023-04-23T08:07:18;99206.94;;;18.14;33.43
35489;BME280;21602;55.670;37.578;2023-04-23T08:09:47;99191.41;;;18.01;33.17
35489;BME280;21602;55.670;37.578;2023-04-23T08:12:13;99193.28;;;17.72;33.52
35489;BME280;21602;55.670;37.578;2023-04-23T08:14:42;99203.84;;;17.68;33.81
35489;BME280;21602;55.670;37.578;2023-04-23T08:17:12;99195.44;;;17.75;33.50
35489;BME280;21602;55.670;37.578;2023-04-23T08:19:38;99195.44;;;17.75;33.48
35489;BME280;21602;55.670;37.578;2023-04-23T08:22:04;99195.13;;;17.81;33.94
35489;BME280;21602;55.670;37.578;2023-04-23T08:24:30;99204.53;;;17.84;33.51
35489;BME280;21602;55.670;37.578;2023-04-23T08:26:56;99201.66;;;17.70;32.97
35489;BME280;21602;55.670;37.578;2023-04-23T08:29:25;99196.53;;;17.74;32.96
35489;BME280;21602;55.670;37.578;2023-04-23T08:31:58;99198.16;;;17.70;32.88
35489;BME280;21602;55.670;37.578;2023-04-23T08:34:32;99192.56;;;17.61;32.79
35489;BME280;21602;55.670;37.578;2023-04-23T08:36:58;99193.59;;;17.65;32.63
35489;BME280;21602;55.670;37.578;2023-04-23T08:39:24;99194.91;;;17.73;32.71
35489;BME280;21602;55.670;37.578;2023-04-23T08:41:57;99196.78;;;17.72;32.37
35489;BME280;21602;55.670;37.578;2023-04-23T08:44:29;99200.63;;;17.66;32.06
35489;BME280;21602;55.670;37.578;2023-04-23T08:46:57;99195.78;;;17.63;31.98
35489;BME280;21602;55.670;37.578;2023-04-23T08:49:32;99187.09;;;17.71;31.85
35489;BME280;21602;55.670;37.578;2023-04-23T08:52:08;99195.63;;;17.83;31.88
35489;BME280;21602;55.670;37.578;2023-04-23T08:54:36;99197.19;;;17.89;31.82
35489;BME280;21602;55.670;37.578;2023-04-23T08:57:06;99190.88;;;17.99;31.87
35489;BME280;21602;55.670;37.578;2023-04-23T08:59:35;99187.78;;;18.11;31.63
35489;BME280;21602;55.670;37.578;2023-04-23T09:02:02;99189.41;;;18.12;31.93
35489;BME280;21602;55.670;37.578;2023-04-23T09:04:35;99182.84;;;18.18;32.36
35489;BME280;21602;55.670;37.578;2023-04-23T09:07:01;99180.03;;;18.28;32.00
35489;BME280;21602;55.670;37.578;2023-04-23T09:09:29;99176.13;;;18.39;32.17
35489;BME280;21602;55.670;37.578;2023-04-23T09:11:56;99173.94;;;18.60;32.11
35489;BME280;21602;55.670;37.578;2023-04-23T09:14:24;99171.75;;;18.86;31.96
35489;BME280;21602;55.670;37.578;2023-04-23T09:16:51;99176.63;;;19.03;31.48
35489;BME280;21602;55.670;37.578;2023-04-23T09:19:18;99171.09;;;19.13;31.14
35489;BME280;21602;55.670;37.578;2023-04-23T09:21:45;99175.84;;;19.03;30.48
35489;BME280;21602;55.670;37.578;2023-04-23T09:24:11;99166.13;;;19.02;30.79
35489;BME280;21602;55.670;37.578;2023-04-23T09:26:48;99165.69;;;19.13;30.60
35489;BME280;21602;55.670;37.578;2023-04-23T09:29:19;99163.84;;;19.28;30.58
35489;BME280;21602;55.670;37.578;2023-04-23T09:31:48;99165.53;;;19.24;30.57
35489;BME280;21602;55.670;37.578;2023-04-23T09:34:19;99169.84;;;19.06;30.65
35489;BME280;21602;55.670;37.578;2023-04-23T09:36:47;99165.97;;;18.93;30.87
35489;BME280;21602;55.670;37.578;2023-04-23T09:39:17;99155.69;;;18.95;30.75
35489;BME280;21602;55.670;37.578;2023-04-23T09:41:43;99158.47;;;18.90;30.75
35489;BME280;21602;55.670;37.578;2023-04-23T09:44:16;99153.69;;;18.82;30.48
35489;BME280;21602;55.670;37.578;2023-04-23T09:46:43;99171.75;;;18.86;30.69
35489;BME280;21602;55.670;37.578;2023-04-23T09:49:10;99158.31;;;18.81;30.72
35489;BME280;21602;55.670;37.578;2023-04-23T09:51:42;99159.59;;;18.84;30.59
35489;BME280;21602;55.670;37.578;2023-04-23T09:56:37;99156.09;;;18.83;30.78
35489;BME280;21602;55.670;37.578;2023-04-23T09:59:18;99151.88;;;18.77;30.83
35489;BME280;21602;55.670;37.578;2023-04-23T10:01:45;99152.28;;;18.84;30.84
35489;BME280;21602;55.670;37.578;2023-04-23T10:04:12;99148.59;;;18.80;30.87
35489;BME280;21602;55.670;37.578;2023-04-23T10:06:43;99149.34;;;18.62;31.01
35489;BME280;21602;55.670;37.578;2023-04-23T10:09:09;99147.72;;;18.61;31.05
35489;BME280;21602;55.670;37.578;2023-04-23T10:11:35;99141.44;;;18.65;31.06
35489;BME280;21602;55.670;37.578;2023-04-23T10:14:02;99141.78;;;18.83;31.14
35489;BME280;21602;55.670;37.578;2023-04-23T10:16:28;99152.00;;;19.05;30.99
35489;BME280;21602;55.670;37.578;2023-04-23T10:18:55;99146.66;;;19.18;30.80
35489;BME280;21602;55.670;37.578;2023-04-23T10:21:28;99137.22;;;19.16;30.70
35489;BME280;21602;55.670;37.578;2023-04-23T10:24:00;99141.28;;;19.00;30.52
35489;BME280;21602;55.670;37.578;2023-04-23T10:26:30;99141.53;;;18.98;30.80
35489;BME280;21602;55.670;37.578;2023-04-23T10:28:59;99154.00;;;18.99;30.62
35489;BME280;21602;55.670;37.578;2023-04-23T10:31:26;99149.31;;;18.86;30.48
35489;BME280;21602;55.670;37.578;2023-04-23T10:33:54;99138.28;;;18.82;30.63
35489;BME280;21602;55.670;37.578;2023-04-23T10:36:22;99132.72;;;18.92;30.53
35489;BME280;21602;55.670;37.578;2023-04-23T10:38:50;99137.22;;;18.97;30.51
35489;BME280;21602;55.670;37.578;2023-04-23T10:41:35;99149.97;;;18.97;30.35
35489;BME280;21602;55.670;37.578;2023-04-23T10:44:03;99138.13;;;18.92;30.07
35489;BME280;21602;55.670;37.578;2023-04-23T10:46:31;99127.59;;;18.91;30.14
35489;BME280;21602;55.670;37.578;2023-04-23T10:49:11;99125.63;;;18.97;30.34
35489;BME280;21602;55.670;37.578;2023-04-23T10:51:47;99121.72;;;19.03;30.20
35489;BME280;21602;55.670;37.578;2023-04-23T10:54:18;99126.88;;;19.04;30.30
35489;BME280;21602;55.670;37.578;2023-04-23T10:56:44;99128.53;;;19.19;30.22
35489;BME280;21602;55.670;37.578;2023-04-23T10:59:20;99131.78;;;19.35;30.09
35489;BME280;21602;55.670;37.578;2023-04-23T11:01:51;99127.41;;;19.20;29.95
35489;BME280;21602;55.670;37.578;2023-04-23T11:04:25;99121.19;;;19.19;30.00
35489;BME280;21602;55.670;37.578;2023-04-23T11:07:05;99115.41;;;19.26;30.24
35489;BME280;21602;55.670;37.578;2023-04-23T11:09:48;99113.53;;;19.40;29.94
35489;BME280;21602;55.670;37.578;2023-04-23T11:14:51;99102.59;;;19.92;30.62
35489;BME280;21602;55.670;37.578;2023-04-23T11:17:20;99096.28;;;20.10;30.71
35489;BME280;21602;55.670;37.578;2023-04-23T11:20:19;99098.09;;;20.15;29.41
35489;BME280;21602;55.670;37.578;2023-04-23T11:22:50;99102.13;;;20.04;29.59
35489;BME280;21602;55.670;37.578;2023-04-23T11:25:26;99092.19;;;19.99;29.21
35489;BME280;21602;55.670;37.578;2023-04-23T11:27:55;99096.06;;;19.93;29.38
35489;BME280;21602;55.670;37.578;2023-04-23T11:30:23;99099.69;;;20.02;29.63
35489;BME280;21602;55.670;37.578;2023-04-23T11:32:51;99100.19;;;20.04;29.29
35489;BME280;21602;55.670;37.578;2023-04-23T11:35:19;99097.28;;;20.01;29.39
35489;BME280;21602;55.670;37.578;2023-04-23T11:37:46;99101.69;;;19.97;29.61
35489;BME280;21602;55.670;37.578;2023-04-23T11:40:16;99103.59;;;19.82;29.73
35489;BME280;21602;55.670;37.578;2023-04-23T11:42:51;99100.50;;;19.75;29.69
35489;BME280;21602;55.670;37.578;2023-04-23T11:45:22;99093.88;;;19.81;29.84
35489;BME280;21602;55.670;37.578;2023-04-23T11:47:53;99098.19;;;19.96;29.87
35489;BME280;21602;55.670;37.578;2023-04-23T11:50:29;99102.13;;;20.04;29.64
35489;BME280;21602;55.670;37.578;2023-04-23T11:52:55;99104.50;;;19.91;29.53
35489;BME280;21602;55.670;37.578;2023-04-23T11:55:22;99102.38;;;19.88;29.39
35489;BME280;21602;55.670;37.578;2023-04-23T11:57:52;99101.59;;;19.88;29.37
35489;BME280;21602;55.670;37.578;2023-04-23T12:00:23;99095.28;;;19.92;29.38
35489;BME280;21602;55.670;37.578;2023-04-23T12:05:25;99114.03;;;20.03;29.56
35489;BME280;21602;55.670;37.578;2023-04-23T12:07:52;99095.47;;;19.82;29.80
35489;BME280;21602;55.670;37.578;2023-04-23T12:10:19;99098.63;;;19.57;30.18
35489;BME280;21602;55.670;37.578;2023-04-23T12:12:52;99086.78;;;19.39;30.40
35489;BME280;21602;55.670;37.578;2023-04-23T12:15:19;99094.38;;;19.37;30.33
35489;BME280;21602;55.670;37.578;2023-04-23T12:17:49;99098.00;;;19.46;30.23
35489;BME280;21602;55.670;37.578;2023-04-23T12:20:20;99095.47;;;19.36;30.33
35489;BME280;21602;55.670;37.578;2023-04-23T12:22:47;99093.19;;;19.43;30.39
35489;BME280;21602;55.670;37.578;2023-04-23T12:25:14;99090.63;;;19.52;30.33
35489;BME280;21602;55.670;37.578;2023-04-23T12:27:40;99102.94;;;19.58;30.47
35489;BME280;21602;55.670;37.578;2023-04-23T12:30:09;99093.81;;;19.54;30.35
35489;BME280;21602;55.670;37.578;2023-04-23T12:32:36;99093.19;;;19.43;30.48
35489;BME280;21602;55.670;37.578;2023-04-23T12:35:03;99089.47;;;19.39;30.45
35489;BME280;21602;55.670;37.578;2023-04-23T12:37:35;99083.53;;;19.37;30.52
35489;BME280;21602;55.670;37.578;2023-04-23T12:40:02;99086.91;;;19.48;30.41
35489;BME280;21602;55.670;37.578;2023-04-23T12:42:31;99076.91;;;19.62;30.51
35489;BME280;21602;55.670;37.578;2023-04-23T12:45:05;99080.34;;;19.81;30.17
35489;BME280;21602;55.670;37.578;2023-04-23T12:47:31;99074.41;;;19.93;29.97
35489;BME280;21602;55.670;37.578;2023-04-23T12:49:57;99063.38;;;19.89;30.05
35489;BME280;21602;55.670;37.578;2023-04-23T12:52:27;99066.38;;;19.88;30.10
35489;BME280;21602;55.670;37.578;2023-04-23T12:54:53;99070.50;;;19.85;30.13
35489;BME280;21602;55.670;37.578;2023-04-23T12:57:20;99064.19;;;19.90;30.24
35489;BME280;21602;55.670;37.578;2023-04-23T12:59:47;99071.69;;;19.93;30.23
35489;BME280;21602;55.670;37.578;2023-04-23T13:02:13;99063.19;;;19.86;30.00